createdAt,value
2023-05-18T00:02:09.493Z,100169.59
2023-05-18T00:04:37.021Z,100166.06
2023-05-18T00:07:04.848Z,100165.78
2023-05-18T00:09:36.537Z,100164.94
2023-05-18T00:12:05.242Z,100164.56
2023-05-18T00:14:31.887Z,100171.53
2023-05-18T00:16:58.653Z,100168.84
2023-05-18T00:19:25.489Z,100161.75
2023-05-18T00:21:52.704Z,100170.47
2023-05-18T00:24:20.389Z,100170.38
2023-05-18T00:26:48.061Z,100176.09
2023-05-18T00:29:15.881Z,100172.13
2023-05-18T00:31:42.683Z,100177.09
2023-05-18T00:34:10.020Z,100177.03
2023-05-18T00:36:37.849Z,100172.19
2023-05-18T00:39:05.533Z,100177.44
2023-05-18T00:41:33.291Z,100170.22
2023-05-18T00:44:00.721Z,100169.66
2023-05-18T00:46:28.680Z,100166.97
2023-05-18T00:48:56.651Z,100170.28
2023-05-18T00:51:24.220Z,100173.63
2023-05-18T00:53:53.562Z,100179.31
2023-05-18T00:56:21.908Z,100170.53
2023-05-18T00:58:48.635Z,100176.97
2023-05-18T01:01:15.336Z,100173.84
2023-05-18T01:03:42.294Z,100174.22
2023-05-18T01:06:09.817Z,100177.22
2023-05-18T01:08:37.637Z,100176.97
2023-05-18T01:11:22.152Z,100177.88
2023-05-18T01:14:20.314Z,100178.06
2023-05-18T01:17:06.036Z,100182.94
2023-05-18T01:19:32.734Z,100187.44
2023-05-18T01:22:33.225Z,100185.59
2023-05-18T01:25:05.525Z,100188.31
2023-05-18T01:27:32.292Z,100190.94
2023-05-18T01:29:59.211Z,100199.63
2023-05-18T01:32:25.836Z,100192.38
2023-05-18T01:34:54.996Z,100196.78
2023-05-18T01:37:24.368Z,100199.25
2023-05-18T01:39:51.087Z,100200.66
2023-05-18T01:42:26.348Z,100202.72
2023-05-18T01:44:58.719Z,100205.34
2023-05-18T01:47:28.785Z,100211.50
2023-05-18T01:50:12.111Z,100209.72
2023-05-18T01:52:52.268Z,100217.50
2023-05-18T01:55:20.543Z,100215.53
2023-05-18T01:57:49.890Z,100212.50
2023-05-18T02:00:17.273Z,100215.34
2023-05-18T02:02:44.875Z,100224.94
2023-05-18T02:05:11.603Z,100214.91
2023-05-18T02:07:39.362Z,100216.38
2023-05-18T02:10:07.398Z,100220.66
2023-05-18T02:12:34.065Z,100218.75
2023-05-18T02:15:00.754Z,100230.88
2023-05-18T02:17:27.522Z,100220.84
2023-05-18T02:19:54.135Z,100228.59
2023-05-18T02:22:20.808Z,100231.94
2023-05-18T02:24:47.504Z,100228.31
2023-05-18T02:27:14.275Z,100235.78
2023-05-18T02:29:40.996Z,100237.44
2023-05-18T02:32:08.164Z,100234.22
2023-05-18T02:34:34.901Z,100239.34
2023-05-18T02:37:01.672Z,100238.31
2023-05-18T02:39:28.628Z,100240.25
2023-05-18T02:41:55.285Z,100235.78
2023-05-18T02:44:22.193Z,100237.56
2023-05-18T02:46:48.958Z,100240.03
2023-05-18T02:49:15.896Z,100243.22
2023-05-18T02:51:42.764Z,100242.06
2023-05-18T02:54:09.518Z,100233.50
2023-05-18T02:56:36.161Z,100239.38
2023-05-18T02:59:02.836Z,100240.53
2023-05-18T03:01:29.820Z,100238.78
2023-05-18T03:03:56.910Z,100244.94
2023-05-18T03:06:23.577Z,100236.94
2023-05-18T03:08:51.134Z,100240.75
2023-05-18T03:11:17.770Z,100243.22
2023-05-18T03:13:44.508Z,100243.91
2023-05-18T03:16:11.238Z,100253.50
2023-05-18T03:18:38.028Z,100240.84
2023-05-18T03:21:05.145Z,100246.31
2023-05-18T03:23:32.118Z,100251.50
2023-05-18T03:25:58.824Z,100253.97
2023-05-18T03:28:25.492Z,100251.25
2023-05-18T03:30:52.144Z,100253.72
2023-05-18T03:33:18.979Z,100254.59
2023-05-18T03:35:47.796Z,100260.03
2023-05-18T03:38:15.532Z,100258.44
2023-05-18T03:40:42.511Z,100263.38
2023-05-18T03:43:09.174Z,100260.53
2023-05-18T03:45:35.931Z,100267.75
2023-05-18T03:48:03.128Z,100274.19
2023-05-18T03:50:29.886Z,100271.91
2023-05-18T03:52:56.490Z,100263.88
2023-05-18T03:55:23.201Z,100271.66
2023-05-18T03:57:50.038Z,100280.00
2023-05-18T04:00:17.168Z,100272.34
2023-05-18T04:02:43.983Z,100274.50
2023-05-18T04:05:10.656Z,100277.56
2023-05-18T04:07:37.636Z,100277.19
2023-05-18T04:10:04.794Z,100273.66
2023-05-18T04:12:31.435Z,100275.13
2023-05-18T04:14:58.121Z,100286.38
2023-05-18T04:17:24.735Z,100285.56
2023-05-18T04:19:51.449Z,100283.00
2023-05-18T04:22:18.214Z,100285.50
2023-05-18T04:24:44.905Z,100278.97
2023-05-18T04:27:11.820Z,100293.91
2023-05-18T04:29:38.642Z,100294.78
2023-05-18T04:32:08.530Z,100295.53
2023-05-18T04:34:35.921Z,100302.03
2023-05-18T04:37:05.677Z,100303.75
2023-05-18T04:39:33.621Z,100308.72
2023-05-18T04:42:01.602Z,100309.13
2023-05-18T04:44:29.050Z,100315.25
2023-05-18T04:46:55.775Z,100310.81
2023-05-18T04:49:22.635Z,100310.88
2023-05-18T04:51:50.266Z,100315.53
2023-05-18T04:54:16.961Z,100306.19
2023-05-18T04:56:43.622Z,100303.06
2023-05-18T04:59:10.285Z,100306.22
2023-05-18T05:01:37.107Z,100313.72
2023-05-18T05:04:03.983Z,100311.13
2023-05-18T05:06:30.723Z,100310.72
2023-05-18T05:08:57.606Z,100316.38
2023-05-18T05:11:24.373Z,100325.97
2023-05-18T05:13:51.350Z,100323.28
2023-05-18T05:16:18.107Z,100325.72
2023-05-18T05:18:47.211Z,100325.06
2023-05-18T05:21:14.220Z,100326.75
2023-05-18T05:23:42.693Z,100321.81
2023-05-18T05:26:09.336Z,100328.66
2023-05-18T05:28:36.020Z,100324.91
2023-05-18T05:31:03.200Z,100334.56
2023-05-18T05:33:29.954Z,100336.66
2023-05-18T05:35:56.599Z,100335.19
2023-05-18T05:38:23.206Z,100334.84
2023-05-18T05:40:49.898Z,100336.25
2023-05-18T05:43:16.700Z,100350.19
2023-05-18T05:45:43.368Z,100337.44
2023-05-18T05:48:11.856Z,100340.75
2023-05-18T05:50:40.065Z,100342.72
2023-05-18T05:53:06.765Z,100350.78
2023-05-18T05:55:33.627Z,100341.81
2023-05-18T05:58:00.450Z,100349.91
2023-05-18T06:00:28.246Z,100349.63
2023-05-18T06:02:56.044Z,100349.91
2023-05-18T06:05:22.929Z,100357.41
2023-05-18T06:07:49.576Z,100361.59
2023-05-18T06:10:16.395Z,100359.34
2023-05-18T06:12:43.191Z,100360.03
2023-05-18T06:15:10.326Z,100361.00
2023-05-18T06:17:37.105Z,100361.84
2023-05-18T06:20:03.897Z,100362.59
2023-05-18T06:22:30.612Z,100371.97
2023-05-18T06:24:57.247Z,100371.75
2023-05-18T06:27:24.113Z,100369.03
2023-05-18T06:29:50.758Z,100371.09
2023-05-18T06:32:17.720Z,100376.94
2023-05-18T06:34:44.585Z,100376.59
2023-05-18T06:37:11.384Z,100373.91
2023-05-18T06:39:39.531Z,100379.69
2023-05-18T06:42:06.504Z,100384.41
2023-05-18T06:44:33.363Z,100387.47
2023-05-18T06:46:59.976Z,100393.47
2023-05-18T06:49:26.592Z,100389.53
2023-05-18T06:51:55.798Z,100386.31
2023-05-18T06:54:22.588Z,100405.84
2023-05-18T06:56:49.205Z,100397.81
2023-05-18T06:59:15.929Z,100397.19
2023-05-18T07:01:42.881Z,100402.72
2023-05-18T07:04:09.609Z,100404.72
2023-05-18T07:06:36.346Z,100400.38
2023-05-18T07:09:03.598Z,100402.06
2023-05-18T07:11:30.251Z,100411.66
2023-05-18T07:13:57.010Z,100415.28
2023-05-18T07:16:23.661Z,100420.50
2023-05-18T07:18:50.365Z,100417.91
2023-05-18T07:21:17.073Z,100423.50
2023-05-18T07:23:43.731Z,100425.81
2023-05-18T07:26:11.154Z,100423.38
2023-05-18T07:28:38.664Z,100420.38
2023-05-18T07:31:05.668Z,100427.63
2023-05-18T07:33:32.331Z,100424.88
2023-05-18T07:35:59.005Z,100426.63
2023-05-18T07:38:25.686Z,100430.75
2023-05-18T07:40:52.356Z,100433.50
2023-05-18T07:43:19.009Z,100432.19
2023-05-18T07:45:45.695Z,100435.94
2023-05-18T07:48:12.382Z,100430.94
2023-05-18T07:50:39.065Z,100438.25
2023-05-18T07:53:05.660Z,100442.28
2023-05-18T07:55:32.515Z,100441.09
2023-05-18T07:57:59.449Z,100442.47
2023-05-18T08:00:26.068Z,100432.69
2023-05-18T08:02:52.974Z,100438.78
2023-05-18T08:05:20.103Z,100442.53
2023-05-18T08:07:46.704Z,100442.66
2023-05-18T08:10:13.351Z,100435.22
2023-05-18T08:12:40.482Z,100444.63
2023-05-18T08:15:08.115Z,100442.81
2023-05-18T08:17:34.839Z,100450.53
2023-05-18T08:20:01.508Z,100446.41
2023-05-18T08:22:28.136Z,100457.44
2023-05-18T08:24:54.852Z,100444.78
2023-05-18T08:27:21.469Z,100449.56
2023-05-18T08:29:48.135Z,100449.59
2023-05-18T08:32:15.046Z,100453.00
2023-05-18T08:34:41.901Z,100451.22
2023-05-18T08:37:08.542Z,100449.50
2023-05-18T08:39:35.181Z,100451.94
2023-05-18T08:42:04.047Z,100453.97
2023-05-18T08:45:09.622Z,100459.81
2023-05-18T08:47:37.637Z,100454.66
2023-05-18T08:50:09.015Z,100460.88
2023-05-18T08:52:37.649Z,100455.53
2023-05-18T08:55:08.458Z,100462.00
2023-05-18T08:57:37.499Z,100458.75
2023-05-18T09:00:04.876Z,100465.19
2023-05-18T09:02:32.476Z,100471.22
2023-05-18T09:04:59.325Z,100456.28
2023-05-18T09:07:26.949Z,100453.38
2023-05-18T09:09:55.392Z,100458.41
2023-05-18T09:12:24.230Z,100458.19
2023-05-18T09:14:51.615Z,100464.69
2023-05-18T09:17:19.005Z,100463.16
2023-05-18T09:19:45.640Z,100457.38
2023-05-18T09:22:12.685Z,100452.88
2023-05-18T09:24:39.346Z,100459.81
2023-05-18T09:27:06.035Z,100461.16
2023-05-18T09:29:33.860Z,100463.38
2023-05-18T09:32:04.094Z,100463.31
2023-05-18T09:34:42.086Z,100461.56
2023-05-18T09:37:09.995Z,100464.25
2023-05-18T09:39:38.943Z,100464.09
2023-05-18T09:42:05.856Z,100464.78
2023-05-18T09:44:34.771Z,100473.50
2023-05-18T09:47:02.766Z,100474.69
2023-05-18T09:49:30.697Z,100478.91
2023-05-18T09:51:57.807Z,100476.13
2023-05-18T09:54:24.640Z,100471.56
2023-05-18T09:57:02.344Z,100469.72
2023-05-18T09:59:36.265Z,100466.69
2023-05-18T10:02:04.720Z,100466.94
2023-05-18T10:04:44.228Z,100466.84
2023-05-18T10:07:18.010Z,100468.91
2023-05-18T10:09:45.825Z,100471.28
2023-05-18T10:12:13.256Z,100468.28
2023-05-18T10:14:45.449Z,100467.97
2023-05-18T10:17:17.226Z,100467.34
2023-05-18T10:19:45.114Z,100455.09
2023-05-18T10:22:16.301Z,100472.72
2023-05-18T10:24:46.276Z,100475.75
2023-05-18T10:27:14.922Z,100467.03
2023-05-18T10:29:42.293Z,100475.94
2023-05-18T10:32:12.605Z,100470.22
2023-05-18T10:34:40.594Z,100474.47
2023-05-18T10:37:07.927Z,100476.88
2023-05-18T10:39:36.814Z,100477.56
2023-05-18T10:42:04.703Z,100475.63
2023-05-18T10:44:31.887Z,100479.84
2023-05-18T10:46:59.804Z,100477.88
2023-05-18T10:49:27.379Z,100480.81
2023-05-18T10:51:54.117Z,100476.88
2023-05-18T10:54:21.561Z,100474.94
2023-05-18T10:56:52.369Z,100472.69
2023-05-18T10:59:20.146Z,100475.41
2023-05-18T11:01:50.048Z,100475.59
2023-05-18T11:04:17.699Z,100479.66
2023-05-18T11:06:54.807Z,100487.03
2023-05-18T11:09:25.339Z,100486.91
2023-05-18T11:11:57.756Z,100490.47
2023-05-18T11:14:30.717Z,100487.66
2023-05-18T11:17:22.751Z,100485.94
2023-05-18T11:20:04.718Z,100483.16
2023-05-18T11:22:52.264Z,100487.31
2023-05-18T11:25:24.915Z,100494.88
2023-05-18T11:27:53.515Z,100494.97
2023-05-18T11:30:31.524Z,100491.09
2023-05-18T11:33:21.334Z,100486.22
2023-05-18T11:36:12.097Z,100492.16
2023-05-18T11:38:50.954Z,100496.22
2023-05-18T11:41:36.547Z,100498.97
2023-05-18T11:44:04.781Z,100497.38
2023-05-18T11:46:31.612Z,100498.41
2023-05-18T11:49:03.407Z,100496.88
2023-05-18T11:51:33.542Z,100490.97
2023-05-18T11:54:00.652Z,100503.59
2023-05-18T11:56:31.316Z,100502.00
2023-05-18T11:59:16.468Z,100499.38
2023-05-18T12:01:43.979Z,100507.59
2023-05-18T12:04:11.284Z,100504.91
2023-05-18T12:06:38.276Z,100501.38
2023-05-18T12:09:05.118Z,100500.47
2023-05-18T12:11:32.851Z,100503.78
2023-05-18T12:14:00.026Z,100503.03
2023-05-18T12:16:27.248Z,100503.63
2023-05-18T12:18:54.065Z,100508.22
2023-05-18T12:21:24.077Z,100513.25
2023-05-18T12:24:00.805Z,100504.31
2023-05-18T12:26:28.608Z,100502.63
2023-05-18T12:28:56.246Z,100507.78
2023-05-18T12:31:23.733Z,100508.91
2023-05-18T12:33:50.490Z,100513.75
2023-05-18T12:36:17.605Z,100507.38
2023-05-18T12:38:48.720Z,100510.06
2023-05-18T12:41:27.780Z,100514.25
2023-05-18T12:43:55.240Z,100515.44
2023-05-18T12:46:22.958Z,100510.53
2023-05-18T12:48:57.493Z,100500.13
2023-05-18T12:51:25.105Z,100503.16
2023-05-18T12:53:51.997Z,100505.25
2023-05-18T12:56:18.642Z,100503.56
2023-05-18T12:58:58.383Z,100501.81
2023-05-18T13:01:25.883Z,100505.88
2023-05-18T13:03:57.566Z,100505.97
2023-05-18T13:06:25.134Z,100507.88
2023-05-18T13:08:55.686Z,100504.84
2023-05-18T13:11:26.206Z,100510.53
2023-05-18T13:14:08.748Z,100507.94
2023-05-18T13:16:38.992Z,100513.22
2023-05-18T13:19:08.419Z,100507.28
2023-05-18T13:21:35.879Z,100505.31
2023-05-18T13:24:03.884Z,100502.09
2023-05-18T13:26:30.973Z,100502.88
2023-05-18T13:28:58.389Z,100507.28
2023-05-18T13:31:25.226Z,100505.88
2023-05-18T13:33:52.126Z,100506.22
2023-05-18T13:36:18.872Z,100505.34
2023-05-18T13:38:48.140Z,100509.53
2023-05-18T13:41:15.085Z,100508.31
2023-05-18T13:43:41.983Z,100514.19
2023-05-18T13:46:09.116Z,100509.72
2023-05-18T13:48:35.886Z,100508.91
2023-05-18T13:51:02.576Z,100510.69
2023-05-18T13:53:29.368Z,100517.00
2023-05-18T13:55:57.847Z,100513.69
2023-05-18T13:58:24.604Z,100511.63
2023-05-18T14:00:51.283Z,100508.44
2023-05-18T14:03:18.313Z,100519.56
2023-05-18T14:05:45.152Z,100516.81
2023-05-18T14:08:11.887Z,100519.75
2023-05-18T14:10:38.536Z,100521.22
2023-05-18T14:13:05.384Z,100514.66
2023-05-18T14:15:32.228Z,100519.31
2023-05-18T14:17:58.922Z,100528.94
2023-05-18T14:20:25.579Z,100527.97
2023-05-18T14:22:52.313Z,100522.78
2023-05-18T14:25:18.962Z,100522.25
2023-05-18T14:27:45.613Z,100522.63
2023-05-18T14:30:12.438Z,100530.38
2023-05-18T14:32:41.886Z,100526.34
2023-05-18T14:35:08.783Z,100530.47
2023-05-18T14:37:35.571Z,100530.97
2023-05-18T14:40:02.284Z,100528.53
2023-05-18T14:42:28.966Z,100528.66
2023-05-18T14:44:55.599Z,100533.00
2023-05-18T14:47:22.466Z,100531.13
2023-05-18T14:49:49.249Z,100539.28
2023-05-18T14:52:15.985Z,100541.03
2023-05-18T14:54:42.683Z,100545.56
2023-05-18T14:57:09.378Z,100539.94
2023-05-18T14:59:36.032Z,100536.22
2023-05-18T15:02:02.803Z,100545.09
2023-05-18T15:04:29.557Z,100539.91
2023-05-18T15:06:59.056Z,100538.06
2023-05-18T15:09:26.882Z,100537.66
2023-05-18T15:11:53.860Z,100541.94
2023-05-18T15:14:20.500Z,100540.94
2023-05-18T15:16:47.271Z,100546.84
2023-05-18T15:19:14.063Z,100546.69
2023-05-18T15:21:40.823Z,100537.91
2023-05-18T15:24:07.675Z,100540.13
2023-05-18T15:26:34.478Z,100547.97
2023-05-18T15:29:01.139Z,100537.41
2023-05-18T15:31:27.791Z,100535.56
2023-05-18T15:33:54.550Z,100547.72
2023-05-18T15:36:21.182Z,100543.09
2023-05-18T15:38:48.037Z,100543.66
2023-05-18T15:41:14.722Z,100548.19
2023-05-18T15:43:41.436Z,100542.53
2023-05-18T15:46:08.173Z,100549.69
2023-05-18T15:48:35.069Z,100548.75
2023-05-18T15:51:01.717Z,100554.28
2023-05-18T15:53:28.478Z,100551.06
2023-05-18T15:55:58.436Z,100553.44
2023-05-18T15:58:26.008Z,100555.53
2023-05-18T16:00:52.728Z,100559.47
2023-05-18T16:03:19.645Z,100546.84
2023-05-18T16:05:46.388Z,100555.19
2023-05-18T16:08:13.118Z,100558.25
2023-05-18T16:10:39.761Z,100557.69
2023-05-18T16:13:06.386Z,100561.06
2023-05-18T16:15:34.482Z,100560.25
2023-05-18T16:18:01.282Z,100562.03
2023-05-18T16:20:28.044Z,100562.59
2023-05-18T16:22:54.918Z,100569.59
2023-05-18T16:25:21.567Z,100574.03
2023-05-18T16:27:48.329Z,100568.09
2023-05-18T16:30:15.180Z,100566.72
2023-05-18T16:32:44.504Z,100570.44
2023-05-18T16:35:11.426Z,100574.78
2023-05-18T16:37:38.670Z,100573.94
2023-05-18T16:40:07.076Z,100564.16
2023-05-18T16:42:34.129Z,100574.13
2023-05-18T16:45:00.801Z,100562.16
2023-05-18T16:47:27.574Z,100572.19
2023-05-18T16:49:54.516Z,100565.66
2023-05-18T16:52:21.197Z,100567.19
2023-05-18T16:54:48.638Z,100571.47
2023-05-18T16:57:15.647Z,100568.00
2023-05-18T16:59:42.407Z,100558.53
2023-05-18T17:02:09.163Z,100557.78
2023-05-18T17:04:35.897Z,100559.44
2023-05-18T17:07:02.518Z,100557.16
2023-05-18T17:09:29.182Z,100562.63
2023-05-18T17:11:56.088Z,100570.25
2023-05-18T17:14:22.757Z,100574.88
2023-05-18T17:16:49.457Z,100581.38
2023-05-18T17:19:16.083Z,100583.66
2023-05-18T17:21:45.621Z,100587.97
2023-05-18T17:24:12.309Z,100581.75
2023-05-18T17:26:38.958Z,100589.41
2023-05-18T17:29:05.638Z,100583.00
2023-05-18T17:31:32.382Z,100577.28
2023-05-18T17:33:59.076Z,100572.34
2023-05-18T17:36:25.914Z,100565.84
2023-05-18T17:38:52.584Z,100562.13
2023-05-18T17:41:19.226Z,100569.19
2023-05-18T17:43:45.840Z,100571.78
2023-05-18T17:46:12.572Z,100574.81
2023-05-18T17:48:39.310Z,100574.34
2023-05-18T17:51:05.963Z,100570.56
2023-05-18T17:53:32.795Z,100567.28
2023-05-18T17:55:59.653Z,100567.28
2023-05-18T17:58:26.324Z,100569.75
2023-05-18T18:00:52.966Z,100567.34
2023-05-18T18:03:19.716Z,100591.06
2023-05-18T18:05:46.568Z,100594.63
2023-05-18T18:08:13.220Z,100596.34
2023-05-18T18:10:39.885Z,100596.13
2023-05-18T18:13:06.529Z,100606.25
2023-05-18T18:15:33.164Z,100614.09
2023-05-18T18:17:59.941Z,100627.13
2023-05-18T18:20:26.750Z,100616.09
2023-05-18T18:22:53.405Z,100622.78
2023-05-18T18:25:20.019Z,100615.81
2023-05-18T18:27:46.737Z,100618.19
2023-05-18T18:30:14.101Z,100617.75
2023-05-18T18:32:40.750Z,100619.16
2023-05-18T18:35:10.550Z,100615.31
2023-05-18T18:37:37.324Z,100611.00
2023-05-18T18:40:06.060Z,100607.22
2023-05-18T18:42:33.258Z,100612.91
2023-05-18T18:44:59.972Z,100614.47
2023-05-18T18:47:26.635Z,100613.13
2023-05-18T18:49:53.292Z,100617.06
2023-05-18T18:52:20.314Z,100621.25
2023-05-18T18:54:47.028Z,100624.13
2023-05-18T18:57:13.636Z,100634.69
2023-05-18T18:59:40.330Z,100634.59
2023-05-18T19:02:07.733Z,100643.69
2023-05-18T19:04:34.564Z,100640.81
2023-05-18T19:07:01.262Z,100645.16
2023-05-18T19:09:29.100Z,100634.38
2023-05-18T19:11:56.363Z,100649.38
2023-05-18T19:14:23.110Z,100651.56
2023-05-18T19:16:49.934Z,100644.19
2023-05-18T19:19:16.708Z,100652.69
2023-05-18T19:21:43.356Z,100651.00
2023-05-18T19:24:10.020Z,100653.56
2023-05-18T19:26:36.883Z,100659.56
2023-05-18T19:29:03.707Z,100661.00
2023-05-18T19:31:30.606Z,100663.72
2023-05-18T19:34:00.453Z,100671.06
2023-05-18T19:36:27.458Z,100671.03
2023-05-18T19:38:54.105Z,100669.41
2023-05-18T19:41:22.844Z,100672.59
2023-05-18T19:43:49.732Z,100667.25
2023-05-18T19:46:16.417Z,100681.72
2023-05-18T19:48:43.083Z,100686.91
2023-05-18T19:51:09.758Z,100692.97
2023-05-18T19:53:36.500Z,100687.09
2023-05-18T19:56:03.164Z,100691.75
2023-05-18T19:58:29.808Z,100696.59
2023-05-18T20:00:56.564Z,100699.19
2023-05-18T20:03:23.374Z,100696.38
2023-05-18T20:05:50.230Z,100702.50
2023-05-18T20:08:16.899Z,100699.97
2023-05-18T20:10:43.582Z,100707.69
2023-05-18T20:13:10.329Z,100702.28
2023-05-18T20:15:36.929Z,100712.81
2023-05-18T20:18:06.612Z,100710.25
2023-05-18T20:20:33.878Z,100718.19
2023-05-18T20:23:00.730Z,100714.88
2023-05-18T20:25:27.789Z,100722.56
2023-05-18T20:27:54.523Z,100717.03
2023-05-18T20:30:21.461Z,100713.69
2023-05-18T20:32:48.112Z,100720.47
2023-05-18T20:35:14.786Z,100719.72
2023-05-18T20:37:41.663Z,100723.06
2023-05-18T20:40:08.947Z,100721.47
2023-05-18T20:42:35.841Z,100723.22
2023-05-18T20:45:02.504Z,100721.53
2023-05-18T20:47:29.160Z,100727.03
2023-05-18T20:49:55.933Z,100725.53
2023-05-18T20:52:22.571Z,100721.72
2023-05-18T20:54:49.330Z,100730.66
2023-05-18T20:57:16.216Z,100721.75
2023-05-18T20:59:42.978Z,100721.66
2023-05-18T21:02:09.623Z,100725.66
2023-05-18T21:04:36.341Z,100723.25
2023-05-18T21:07:03.056Z,100717.53
2023-05-18T21:09:29.691Z,100724.00
2023-05-18T21:11:56.328Z,100724.00
2023-05-18T21:14:22.987Z,100729.84
2023-05-18T21:16:49.703Z,100725.75
2023-05-18T21:19:16.500Z,100730.81
2023-05-18T21:21:43.448Z,100734.16
2023-05-18T21:24:10.757Z,100735.69
2023-05-18T21:26:37.491Z,100739.56
2023-05-18T21:29:04.136Z,100738.22
2023-05-18T21:31:33.865Z,100733.53
2023-05-18T21:34:00.558Z,100738.75
2023-05-18T21:36:28.527Z,100735.59
2023-05-18T21:38:55.202Z,100741.63
2023-05-18T21:41:21.858Z,100736.84
2023-05-18T21:43:48.494Z,100741.28
2023-05-18T21:46:15.266Z,100738.13
2023-05-18T21:48:43.069Z,100746.06
2023-05-18T21:51:09.995Z,100749.34
2023-05-18T21:53:36.652Z,100748.22
2023-05-18T21:56:03.476Z,100753.31
2023-05-18T21:58:30.103Z,100755.47
2023-05-18T22:00:56.919Z,100753.19
2023-05-18T22:03:23.560Z,100753.72
2023-05-18T22:05:50.438Z,100750.53
2023-05-18T22:08:17.092Z,100750.19
2023-05-18T22:10:43.727Z,100751.75
2023-05-18T22:13:10.429Z,100750.59
2023-05-18T22:15:37.098Z,100750.91
2023-05-18T22:18:04.104Z,100748.66
2023-05-18T22:20:31.127Z,100751.59
2023-05-18T22:23:00.714Z,100749.47
2023-05-18T22:25:27.484Z,100752.34
2023-05-18T22:27:57.045Z,100754.28
2023-05-18T22:30:23.678Z,100756.00
2023-05-18T22:32:51.143Z,100743.53
2023-05-18T22:35:17.980Z,100747.38
2023-05-18T22:37:45.544Z,100745.69
2023-05-18T22:40:12.782Z,100746.19
2023-05-18T22:42:39.450Z,100752.53
2023-05-18T22:45:06.602Z,100741.72
2023-05-18T22:47:33.373Z,100748.66
2023-05-18T22:50:00.067Z,100749.34
2023-05-18T22:52:26.693Z,100751.19
2023-05-18T22:54:53.449Z,100742.38
2023-05-18T22:57:20.088Z,100735.69
2023-05-18T22:59:46.788Z,100736.41
2023-05-18T23:02:13.483Z,100733.13
2023-05-18T23:04:40.208Z,100742.47
2023-05-18T23:07:07.328Z,100742.84
2023-05-18T23:09:33.974Z,100739.91
2023-05-18T23:12:00.704Z,100748.91
2023-05-18T23:14:27.371Z,100745.75
2023-05-18T23:16:54.007Z,100747.47
2023-05-18T23:19:20.754Z,100737.56
2023-05-18T23:21:47.539Z,100743.25
2023-05-18T23:24:14.994Z,100752.19
2023-05-18T23:26:42.561Z,100750.31
2023-05-18T23:29:09.595Z,100761.69
2023-05-18T23:31:36.837Z,100762.91
2023-05-18T23:34:03.950Z,100764.81
2023-05-18T23:36:32.779Z,100764.59
2023-05-18T23:38:59.662Z,100764.00
2023-05-18T23:41:28.246Z,100748.66
2023-05-18T23:43:56.007Z,100756.16
2023-05-18T23:46:23.604Z,100749.97
2023-05-18T23:48:50.973Z,100748.53
2023-05-18T23:51:18.700Z,100740.78
2023-05-18T23:53:46.910Z,100745.31
2023-05-18T23:56:14.324Z,100742.09
2023-05-18T23:59:01.121Z,100744.75
